DEWPR EDAH-EDAH
Flight info
| Callsign | DEWPR |
|---|---|
| Flight time | 0h 8m |
| Altitude | |
| Route | |
| Aircraft | C172 |
Departure
| Time | 2026-04-11 20:43 |
|---|---|
| Airport | Heringsdorf Airport (EDAH) |
Arrival
| Time | 2026-04-11 20:52 |
|---|---|
| Airport | Heringsdorf Airport (EDAH) |
| Time | Latitude | Longitude | Altitude | Speed | Heading |
|---|---|---|---|---|---|
| 2026-04-11 20:39 | 53.87917 | 14.14010 | 71 ft | 11 kts | 298° |
| 2026-04-11 20:39 | 53.87952 | 14.13908 | 74 ft | 8 kts | 319° |
| 2026-04-11 20:39 | 53.87996 | 14.13891 | 74 ft | 0 kts | 358° |
| 2026-04-11 20:41 | 53.88001 | 14.13890 | 74 ft | 6 kts | 356° |
| 2026-04-11 20:41 | 53.88059 | 14.13888 | 74 ft | 8 kts | 13° |
| 2026-04-11 20:41 | 53.88083 | 14.13945 | 74 ft | 5 kts | 88° |
| 2026-04-11 20:42 | 53.88081 | 14.13967 | 73 ft | 0 kts | 104° |
| 2026-04-11 20:42 | 53.88047 | 14.14172 | 71 ft | 49 kts | 105° |
| 2026-04-11 20:43 | 53.87919 | 14.14873 | 289 ft | 64 kts | 107° |
| 2026-04-11 20:43 | 53.87760 | 14.15587 | 611 ft | 65 kts | 107° |
| 2026-04-11 20:43 | 53.87646 | 14.16335 | 973 ft | 66 kts | 105° |
| 2026-04-11 20:43 | 53.87487 | 14.17053 | 1287 ft | 69 kts | 142° |
| 2026-04-11 20:44 | 53.87013 | 14.17165 | 1504 ft | 80 kts | 192° |
| 2026-04-11 20:44 | 53.86483 | 14.16728 | 1537 ft | 88 kts | 197° |
| 2026-04-11 20:44 | 53.86071 | 14.15881 | 1560 ft | 109 kts | 247° |
| 2026-04-11 20:44 | 53.86241 | 14.14513 | 1527 ft | 128 kts | 288° |
| 2026-04-11 20:45 | 53.86580 | 14.13123 | 1475 ft | 127 kts | 284° |
| 2026-04-11 20:45 | 53.86835 | 14.11722 | 1464 ft | 121 kts | 273° |
| 2026-04-11 20:45 | 53.86922 | 14.10373 | 1497 ft | 116 kts | 270° |
| 2026-04-11 20:45 | 53.87079 | 14.09001 | 1473 ft | 119 kts | 273° |
| 2026-04-11 20:46 | 53.87241 | 14.07630 | 1446 ft | 121 kts | 272° |
| 2026-04-11 20:46 | 53.87370 | 14.06233 | 1433 ft | 119 kts | 268° |
| 2026-04-11 20:46 | 53.87535 | 14.04845 | 1441 ft | 121 kts | 279° |
| 2026-04-11 20:47 | 53.87266 | 14.02880 | 1533 ft | 74 kts | 172° |
| 2026-04-11 20:47 | 53.86962 | 14.03487 | 1514 ft | 83 kts | 100° |
| 2026-04-11 20:47 | 53.87369 | 14.04294 | 1477 ft | 108 kts | 27° |
| 2026-04-11 20:47 | 53.88099 | 14.03939 | 1447 ft | 116 kts | 310° |
| 2026-04-11 20:48 | 53.88272 | 14.02757 | 1469 ft | 97 kts | 238° |
| 2026-04-11 20:48 | 53.87836 | 14.02200 | 1495 ft | 76 kts | 170° |
| 2026-04-11 20:48 | 53.87494 | 14.02801 | 1539 ft | 83 kts | 107° |
| 2026-04-11 20:48 | 53.87813 | 14.03740 | 1546 ft | 107 kts | 50° |
| 2026-04-11 20:49 | 53.88419 | 14.04479 | 1521 ft | 104 kts | 51° |
| 2026-04-11 20:49 | 53.88763 | 14.04936 | 1510 ft | 89 kts | 56° |
| 2026-04-11 20:49 | 53.89275 | 14.05879 | 1305 ft | 77 kts | 78° |
| 2026-04-11 20:49 | 53.89343 | 14.06651 | 1179 ft | 63 kts | 116° |
| 2026-04-11 20:50 | 53.89182 | 14.07388 | 1096 ft | 70 kts | 118° |
| 2026-04-11 20:50 | 53.89024 | 14.08179 | 1031 ft | 72 kts | 117° |
| 2026-04-11 20:50 | 53.88922 | 14.08733 | 949 ft | 74 kts | 113° |
| 2026-04-11 20:50 | 53.88787 | 14.09590 | 803 ft | 75 kts | 110° |
| 2026-04-11 20:51 | 53.88652 | 14.10464 | 735 ft | 79 kts | 108° |
| 2026-04-11 20:51 | 53.88511 | 14.11310 | 589 ft | 72 kts | 108° |
| 2026-04-11 20:51 | 53.88398 | 14.12098 | 440 ft | 64 kts | 112° |
| 2026-04-11 20:51 | 53.88267 | 14.12812 | 271 ft | 65 kts | 103° |
| 2026-04-11 20:52 | 53.88151 | 14.13522 | 114 ft | 56 kts | 103° |
| 2026-04-11 20:52 | 53.88053 | 14.14131 | 74 ft | 46 kts | 102° |
| 2026-04-11 20:52 | 53.87965 | 14.14680 | 99 ft | 64 kts | 105° |
| 2026-04-11 20:52 | 53.87821 | 14.15407 | 379 ft | 70 kts | 105° |
| 2026-04-11 20:53 | 53.87693 | 14.16247 | 673 ft | 75 kts | 105° |
| 2026-04-11 20:53 | 53.87581 | 14.17101 | 1077 ft | 73 kts | 110° |
| 2026-04-11 20:53 | 53.87449 | 14.17898 | 1440 ft | 68 kts | 131° |
| 2026-04-11 20:53 | 53.87022 | 14.18132 | 1696 ft | 77 kts | 187° |
| 2026-04-11 20:54 | 53.86528 | 14.17701 | 1957 ft | 80 kts | 194° |
| 2026-04-11 20:54 | 53.86045 | 14.17135 | 2046 ft | 94 kts | 225° |
| 2026-04-11 20:54 | 53.85945 | 14.15911 | 2042 ft | 118 kts | 271° |
| 2026-04-11 20:54 | 53.86168 | 14.14520 | 2025 ft | 125 kts | 278° |
| 2026-04-11 20:55 | 53.86401 | 14.13119 | 1998 ft | 127 kts | 278° |
| 2026-04-11 20:55 | 53.86610 | 14.11670 | 2031 ft | 123 kts | 273° |
| 2026-04-11 20:55 | 53.86457 | 14.10453 | 2024 ft | 98 kts | 216° |
| 2026-04-11 20:55 | 53.85925 | 14.10238 | 1988 ft | 77 kts | 152° |
| 2026-04-11 20:56 | 53.85741 | 14.11054 | 1955 ft | 89 kts | 89° |
| 2026-04-11 20:56 | 53.86285 | 14.11700 | 1930 ft | 113 kts | 5° |
| 2026-04-11 20:56 | 53.86864 | 14.10928 | 1926 ft | 104 kts | 276° |
| 2026-04-11 20:56 | 53.86903 | 14.09750 | 1875 ft | 102 kts | 259° |
| 2026-04-11 20:57 | 53.86910 | 14.08555 | 1865 ft | 99 kts | 258° |
| 2026-04-11 20:57 | 53.86959 | 14.07392 | 1885 ft | 101 kts | 269° |
| 2026-04-11 20:57 | 53.87251 | 14.06266 | 1833 ft | 110 kts | 310° |
| 2026-04-11 20:57 | 53.87892 | 14.05726 | 1594 ft | 102 kts | 5° |
| 2026-04-11 20:58 | 53.88578 | 14.05848 | 1414 ft | 97 kts | 26° |
| 2026-04-11 20:58 | 53.89029 | 14.06411 | 1243 ft | 75 kts | 76° |
| 2026-04-11 20:58 | 53.89210 | 14.07127 | 1106 ft | 54 kts | 107° |
| 2026-04-11 20:58 | 53.89133 | 14.07730 | 991 ft | 54 kts | 119° |
| 2026-04-11 20:59 | 53.89007 | 14.08333 | 924 ft | 55 kts | 116° |
| 2026-04-11 20:59 | 53.88895 | 14.08950 | 808 ft | 55 kts | 112° |
| 2026-04-11 20:59 | 53.88791 | 14.09594 | 715 ft | 58 kts | 110° |
| 2026-04-11 20:59 | 53.88684 | 14.10261 | 661 ft | 59 kts | 108° |
| 2026-04-11 21:00 | 53.88577 | 14.10951 | 574 ft | 62 kts | 107° |
| 2026-04-11 21:00 | 53.88457 | 14.11654 | 471 ft | 60 kts | 106° |
| 2026-04-11 21:00 | 53.88346 | 14.12316 | 323 ft | 55 kts | 103° |
| 2026-04-11 21:00 | 53.88245 | 14.12966 | 206 ft | 61 kts | 103° |
| 2026-04-11 21:01 | 53.88137 | 14.13618 | 92 ft | 54 kts | 102° |
| 2026-04-11 21:01 | 53.88058 | 14.14110 | 69 ft | 29 kts | 106° |
| 2026-04-11 21:01 | 53.88038 | 14.14224 | 73 ft | 4 kts | 107° |
| 2026-04-11 21:01 | 53.88031 | 14.14263 | 70 ft | 3 kts | 106° |
| 2026-04-11 21:02 | 53.88026 | 14.14299 | 72 ft | 6 kts | 104° |
| 2026-04-11 21:02 | 53.87974 | 14.14615 | 68 ft | 59 kts | 106° |
| 2026-04-11 21:02 | 53.87841 | 14.15380 | 310 ft | 70 kts | 103° |
| 2026-04-11 21:02 | 53.87923 | 14.16164 | 586 ft | 80 kts | 45° |
| 2026-04-11 21:03 | 53.88525 | 14.16165 | 855 ft | 101 kts | 340° |
| 2026-04-11 21:03 | 53.89193 | 14.15636 | 1126 ft | 112 kts | 337° |
| 2026-04-11 21:03 | 53.89906 | 14.15036 | 1405 ft | 114 kts | 335° |
| 2026-04-11 21:03 | 53.90615 | 14.14413 | 1645 ft | 115 kts | 333° |
| 2026-04-11 21:04 | 53.91323 | 14.13737 | 1856 ft | 118 kts | 331° |
| 2026-04-11 21:04 | 53.92033 | 14.12977 | 1995 ft | 125 kts | 326° |
| 2026-04-11 21:04 | 53.92788 | 14.12124 | 2019 ft | 135 kts | 328° |
| 2026-04-11 21:04 | 53.93590 | 14.11256 | 2028 ft | 135 kts | 327° |
| 2026-04-11 21:05 | 53.94362 | 14.10390 | 1972 ft | 131 kts | 325° |
| 2026-04-11 21:05 | 53.95092 | 14.09484 | 1942 ft | 128 kts | 320° |
| 2026-04-11 21:05 | 53.95762 | 14.08530 | 1951 ft | 123 kts | 317° |
| 2026-04-11 21:05 | 53.96365 | 14.07547 | 1932 ft | 120 kts | 310° |
| 2026-04-11 21:06 | 53.96937 | 14.06520 | 1910 ft | 120 kts | 310° |
| 2026-04-11 21:06 | 53.97547 | 14.05558 | 1973 ft | 120 kts | 333° |
| 2026-04-11 21:06 | 53.98342 | 14.05160 | 1939 ft | 119 kts | 354° |
| 2026-04-11 21:06 | 53.99160 | 14.04869 | 1926 ft | 121 kts | 354° |
| 2026-04-11 21:07 | 53.99978 | 14.04628 | 1941 ft | 116 kts | 358° |
| 2026-04-11 21:07 | 54.00770 | 14.04396 | 2012 ft | 116 kts | 344° |
| 2026-04-11 21:07 | 54.01346 | 14.03526 | 2035 ft | 108 kts | 279° |
| 2026-04-11 21:07 | 54.01202 | 14.02516 | 2019 ft | 78 kts | 204° |
| 2026-04-11 21:08 | 54.00734 | 14.02354 | 1984 ft | 69 kts | 159° |
| 2026-04-11 21:08 | 54.00403 | 14.02926 | 1975 ft | 70 kts | 131° |
| 2026-04-11 21:08 | 54.00138 | 14.03612 | 1984 ft | 69 kts | 131° |
| 2026-04-11 21:08 | 53.99865 | 14.04277 | 1977 ft | 68 kts | 134° |
| 2026-04-11 21:09 | 53.99547 | 14.04867 | 1967 ft | 67 kts | 142° |
| 2026-04-11 21:09 | 53.99144 | 14.05267 | 1957 ft | 66 kts | 152° |
| 2026-04-11 21:09 | 53.98753 | 14.05683 | 1979 ft | 67 kts | 144° |
| 2026-04-11 21:09 | 53.98419 | 14.06246 | 1992 ft | 69 kts | 135° |
| 2026-04-11 21:10 | 53.98115 | 14.06910 | 1990 ft | 73 kts | 134° |
| 2026-04-11 21:10 | 53.97801 | 14.07614 | 1994 ft | 75 kts | 137° |
| 2026-04-11 21:10 | 53.97346 | 14.07996 | 1944 ft | 76 kts | 175° |
| 2026-04-11 21:10 | 53.96840 | 14.07655 | 1928 ft | 82 kts | 197° |
| 2026-04-11 21:11 | 53.96351 | 14.07177 | 1913 ft | 81 kts | 196° |
| 2026-04-11 21:11 | 53.95856 | 14.06749 | 1904 ft | 80 kts | 193° |
| 2026-04-11 21:11 | 53.95344 | 14.06394 | 1895 ft | 79 kts | 189° |
| 2026-04-11 21:11 | 53.94824 | 14.06083 | 1968 ft | 82 kts | 189° |
| 2026-04-11 21:12 | 53.94277 | 14.05734 | 1937 ft | 85 kts | 191° |
| 2026-04-11 21:12 | 53.93737 | 14.05372 | 1948 ft | 81 kts | 192° |
| 2026-04-11 21:12 | 53.93239 | 14.04998 | 2006 ft | 78 kts | 192° |
| 2026-04-11 21:12 | 53.92748 | 14.04644 | 1980 ft | 76 kts | 192° |
| 2026-04-11 21:13 | 53.92271 | 14.04272 | 1920 ft | 75 kts | 193° |
| 2026-04-11 21:13 | 53.91835 | 14.04111 | 1780 ft | 63 kts | 173° |
| 2026-04-11 21:13 | 53.91388 | 14.04080 | 1736 ft | 64 kts | 176° |
| 2026-04-11 21:13 | 53.90927 | 14.03979 | 1635 ft | 67 kts | 180° |
| 2026-04-11 21:14 | 53.90482 | 14.03816 | 1605 ft | 63 kts | 179° |
| 2026-04-11 21:14 | 53.90061 | 14.03785 | 1516 ft | 61 kts | 157° |
| 2026-04-11 21:14 | 53.89736 | 14.04310 | 1435 ft | 71 kts | 133° |
| 2026-04-11 21:14 | 53.89516 | 14.05141 | 1352 ft | 84 kts | 113° |
| 2026-04-11 21:15 | 53.89380 | 14.06147 | 1164 ft | 89 kts | 114° |
| 2026-04-11 21:15 | 53.89187 | 14.07149 | 1014 ft | 90 kts | 115° |
| 2026-04-11 21:15 | 53.89020 | 14.08191 | 857 ft | 93 kts | 110° |
| 2026-04-11 21:15 | 53.88830 | 14.09312 | 681 ft | 107 kts | 108° |
| 2026-04-11 21:16 | 53.88635 | 14.10521 | 533 ft | 103 kts | 107° |
| 2026-04-11 21:16 | 53.88460 | 14.11615 | 366 ft | 90 kts | 107° |
| 2026-04-11 21:16 | 53.88304 | 14.12585 | 222 ft | 79 kts | 104° |
| 2026-04-11 21:16 | 53.88173 | 14.13404 | 99 ft | 66 kts | 104° |
| 2026-04-11 21:17 | 53.88070 | 14.14037 | 73 ft | 45 kts | 105° |
| 2026-04-11 21:17 | 53.87997 | 14.14480 | 71 ft | 36 kts | 107° |
| 2026-04-11 21:17 | 53.87933 | 14.14863 | 67 ft | 35 kts | 105° |
| 2026-04-11 21:17 | 53.87872 | 14.15232 | 73 ft | 25 kts | 108° |
| 2026-04-11 21:18 | 53.87808 | 14.15257 | 74 ft | 11 kts | 193° |
| 2026-04-11 21:18 | 53.87762 | 14.15193 | 73 ft | 9 kts | 279° |
| 2026-04-11 21:18 | 53.87768 | 14.15066 | 73 ft | 14 kts | 275° |
| 2026-04-11 21:18 | 53.87779 | 14.14881 | 73 ft | 17 kts | 273° |
| 2026-04-11 21:19 | 53.87780 | 14.14733 | 73 ft | 8 kts | 218° |
| 2026-04-11 21:19 | 53.87736 | 14.14716 | 73 ft | 6 kts | 226° |
| 2026-04-11 21:19 | 53.87734 | 14.14638 | 73 ft | 9 kts | 269° |
| 2026-04-11 21:19 | 53.87723 | 14.14542 | 71 ft | 8 kts | 189° |
| 2026-04-11 21:20 | 53.87708 | 14.14541 | 73 ft | 0 kts | 180° |